Terminal Aerodrome Forecast
Issued by NWS

Home | Current Version | Previous Version | Text Only | Print | Product List | Glossary On
Versions: 1 2 3 4 5 6 7 8 9 10 11 12 13 14 15
371
FTUS45 KABQ 290527
TAFTCC
TAF
KTCC 290527Z 2906/3006 06011KT P6SM VCSH OVC009
     FM290800 05015KT 6SM -SHRA BR OVC009
     FM291000 02017G27KT 2SM RA BR OVC007
     FM292000 02020G30KT P6SM VCSH OVC025
     FM300200 36010KT P6SM SCT100 BKN250=

USA.gov is the U.S. government's official web portal to all federal, state and local government web resources and services.